Terminal Aerodrome Forecast
Issued by NWS

Home | Current Version | Previous Version | Text Only | Print | Product List | Glossary On
Versions: 1 2 3 4 5 6 7 8 9 10 11 12 13 14 15 16 17 18 19 20 21 22 23 24 25 26 27 28 29 30 31 32 33 34 35 36 37 38 39 40 41 42 43 44 45 46
000
FTUS42 KMFL 240046 AAA
TAFFXE
TAF AMD
KFXE 240046Z 2401/2424 VRB05KT P6SM VCSH SCT025 BKN040 BKN080
      TEMPO 2401/2402 4SM SHRA BKN015 BKN025 OVC050
     FM240400 34005KT P6SM BKN010 BKN030 BKN150
     FM241400 03008KT P6SM VCSH BKN030 BKN050 BKN150=

USA.gov is the U.S. government's official web portal to all federal, state and local government web resources and services.